Time;durP1;ratioP1;P1;durP2;ratioP2;P2;SDS_P1;SDS_P2;PMS_P1;PMS_P2;Temp;Humidity;BMP_temperature;BMP_pressure;BME280_temperature;BME280_humidity;BME280_pressure;Samples;Min_cycle;Max_cycle;Signal;HPM_P1;HPM_P2
2022/04/05 00:01:19;;;;;;;8.60;6.97;;;7.20;73.20;;;;;;5052200;28;20033;-74
2022/04/05 00:03:45;;;;;;;11.00;7.35;;;7.10;74.50;;;;;;5052181;28;20462;-73
2022/04/05 00:06:10;;;;;;;8.05;7.25;;;7.10;75.00;;;;;;5051506;28;20021;-74
2022/04/05 00:08:36;;;;;;;10.68;7.80;;;7.10;76.10;;;;;;5052153;28;20104;-74
2022/04/05 00:11:02;;;;;;;8.27;7.35;;;7.00;76.80;;;;;;5051681;28;20029;-74
2022/04/05 00:13:27;;;;;;;8.55;7.70;;;7.00;77.40;;;;;;5052271;28;20120;-74
2022/04/05 00:15:53;;;;;;;13.82;8.07;;;7.00;77.90;;;;;;5050883;28;20065;-74
2022/04/05 00:18:19;;;;;;;8.70;7.72;;;6.90;79.00;;;;;;5051580;28;20052;-74
2022/04/05 00:20:45;;;;;;;9.95;7.47;;;6.90;79.80;;;;;;5052126;28;20032;-75
2022/04/05 00:23:11;;;;;;;11.73;7.65;;;6.90;79.90;;;;;;5051581;28;20032;-74
2022/04/05 00:25:36;;;;;;;9.73;7.85;;;6.90;80.00;;;;;;5051729;28;20434;-74
2022/04/05 00:28:03;;;;;;;12.73;8.52;;;6.90;80.00;;;;;;5051234;28;20025;-74
2022/04/05 00:30:28;;;;;;;11.68;8.00;;;6.90;80.00;;;;;;5051940;28;20076;-74
2022/04/05 00:32:54;;;;;;;8.02;7.10;;;6.90;79.70;;;;;;5051589;28;20029;-73
2022/04/05 00:35:21;;;;;;;10.20;7.68;;;6.80;80.10;;;;;;5051783;28;20043;-74
2022/04/05 00:37:47;;;;;;;9.65;7.43;;;6.80;81.50;;;;;;5051478;28;20029;-73
2022/04/05 00:40:32;;;;;;;11.02;7.88;;;6.80;82.90;;;;;;5051021;28;20036;-74
2022/04/05 00:42:58;;;;;;;10.88;7.80;;;6.70;84.00;;;;;;5051369;28;20025;-75
2022/04/05 00:45:24;;;;;;;12.25;8.52;;;6.70;85.80;;;;;;5051668;28;20112;-74
2022/04/05 00:47:51;;;;;;;9.02;8.07;;;6.60;87.10;;;;;;5051794;28;20499;-74
2022/04/05 00:50:22;;;;;;;9.68;8.18;;;6.60;89.20;;;;;;5050977;28;20319;-73
2022/04/05 00:52:48;;;;;;;;;;;6.60;90.40;;;;;;5052059;28;20025;-73
2022/04/05 00:55:17;;;;;;;10.02;7.72;;;6.50;90.50;;;;;;5050938;28;19951;-74
2022/04/05 00:57:44;;;;;;;10.85;8.25;;;6.50;91.10;;;;;;5052058;28;20100;-74
2022/04/05 01:00:09;;;;;;;10.93;7.72;;;6.50;91.60;;;;;;5051365;28;20041;-74
2022/04/05 01:02:39;;;;;;;8.85;7.95;;;6.50;92.10;;;;;;5051685;28;20067;-74
2022/04/05 01:05:06;;;;;;;12.65;8.65;;;6.50;91.70;;;;;;5051058;28;20032;-74
2022/04/05 01:07:33;;;;;;;12.57;7.88;;;6.50;92.30;;;;;;5051613;28;20108;-74
2022/04/05 01:09:59;;;;;;;10.93;8.13;;;6.40;92.80;;;;;;5050840;28;20036;-75
2022/04/05 01:12:25;;;;;;;10.93;7.72;;;6.40;93.00;;;;;;5051780;28;20033;-74
2022/04/05 01:14:52;;;;;;;9.68;8.02;;;6.40;93.90;;;;;;5051266;28;20128;-74
2022/04/05 01:17:18;;;;;;;11.95;8.23;;;6.30;93.90;;;;;;5050858;28;20111;-73
2022/04/05 01:19:47;;;;;;;10.63;8.30;;;6.30;94.90;;;;;;5051597;28;20039;-73
2022/04/05 01:22:13;;;;;;;13.27;8.73;;;6.30;95.40;;;;;;5050717;28;20060;-73
2022/04/05 01:24:39;;;;;;;9.38;7.85;;;6.20;95.40;;;;;;5051680;28;20462;-73
2022/04/05 01:27:06;;;;;;;11.82;9.18;;;6.20;96.00;;;;;;5050781;28;20025;-72
2022/04/05 01:29:32;;;;;;;11.23;8.23;;;6.20;96.70;;;;;;5051010;28;20497;-73
2022/04/05 01:32:08;;;;;;;8.80;7.90;;;6.20;97.10;;;;;;5051128;28;20543;-74
2022/04/05 01:34:35;;;;;;;9.77;8.50;;;6.10;97.50;;;;;;5051583;28;20033;-74
2022/04/05 01:37:04;;;;;;;9.43;7.95;;;6.10;98.00;;;;;;5050632;28;20095;-75
2022/04/05 01:39:32;;;;;;;9.82;8.30;;;6.10;98.20;;;;;;5051377;28;20469;-74
2022/04/05 01:42:04;;;;;;;12.80;8.93;;;6.10;98.30;;;;;;5054938;28;20108;-74
2022/04/05 01:44:31;;;;;;;9.45;8.30;;;6.10;98.90;;;;;;5054917;28;20130;-74
2022/04/05 01:47:01;;;;;;;10.45;8.43;;;6.10;99.00;;;;;;5055172;28;20071;-72
2022/04/05 01:49:27;;;;;;;9.73;8.35;;;6.10;99.10;;;;;;5054748;28;20107;-73
2022/04/05 01:51:53;;;;;;;11.23;8.35;;;6.10;99.10;;;;;;5054481;28;20108;-73
2022/04/05 01:54:18;;;;;;;10.07;8.30;;;6.10;98.30;;;;;;5054095;28;20083;-73
2022/04/05 01:56:46;;;;;;;8.57;7.70;;;6.10;98.30;;;;;;5054359;28;20512;-73
2022/04/05 01:59:14;;;;;;;8.50;7.63;;;6.10;98.40;;;;;;5054104;28;20021;-74
2022/04/05 02:01:40;;;;;;;9.45;7.57;;;6.20;97.70;;;;;;5054420;28;20465;-73
2022/04/05 02:04:10;;;;;;;9.82;8.25;;;6.20;96.80;;;;;;5054124;28;20078;-73
2022/04/05 02:06:37;;;;;;;9.20;8.15;;;6.20;96.90;;;;;;5054682;28;20021;-73
2022/04/05 02:09:03;;;;;;;9.68;8.00;;;6.20;96.50;;;;;;5053747;28;20059;-75
2022/04/05 02:11:28;;;;;;;8.60;7.70;;;6.30;96.00;;;;;;5054671;28;20121;-74
2022/04/05 02:13:54;;;;;;;8.85;7.22;;;6.30;95.80;;;;;;5054434;28;20108;-74
2022/04/05 02:16:20;;;;;;;13.38;7.93;;;6.30;95.70;;;;;;5053851;28;20036;-73
2022/04/05 02:18:45;;;;;;;11.73;7.55;;;6.30;95.40;;;;;;5054488;28;20044;-73
2022/04/05 02:21:11;;;;;;;8.30;7.50;;;6.30;95.40;;;;;;5053689;28;20056;-73
2022/04/05 02:23:37;;;;;;;8.73;7.40;;;6.30;95.10;;;;;;5053987;28;20096;-74
2022/04/05 02:26:03;;;;;;;8.57;7.35;;;6.40;94.60;;;;;;5053954;28;20024;-73
2022/04/05 02:28:28;;;;;;;11.55;7.63;;;6.40;94.60;;;;;;5054396;28;20116;-74
2022/04/05 02:30:54;;;;;;;9.80;6.45;;;6.40;94.50;;;;;;5054060;28;20116;-73
2022/04/05 02:33:20;;;;;;;8.48;7.57;;;6.40;94.70;;;;;;5053488;28;20104;-73
2022/04/05 02:35:48;;;;;;;7.85;6.80;;;6.50;94.20;;;;;;5054111;28;20029;-74
2022/04/05 02:38:32;;;;;;;8.50;7.45;;;6.50;94.20;;;;;;5052914;28;20071;-74
2022/04/05 02:40:59;;;;;;;7.70;6.88;;;6.50;94.00;;;;;;5053606;28;20056;-74
2022/04/05 02:43:25;;;;;;;8.18;6.95;;;6.50;94.10;;;;;;5053212;28;20040;-73
2022/04/05 02:45:55;;;;;;;9.02;7.30;;;6.50;94.20;;;;;;5053531;28;20127;-74
2022/04/05 02:48:23;;;;;;;8.63;7.20;;;6.50;93.90;;;;;;5053094;28;20044;-74
2022/04/05 02:50:49;;;;;;;7.93;7.05;;;6.60;93.30;;;;;;5052331;28;20040;-74
2022/04/05 02:53:15;;;;;;;7.80;7.00;;;6.60;93.10;;;;;;5053115;28;20029;-74
2022/04/05 02:55:42;;;;;;;9.57;7.07;;;6.60;93.20;;;;;;5053287;28;20048;-73
2022/04/05 02:58:07;;;;;;;7.65;6.65;;;6.60;93.10;;;;;;5052879;28;20374;-73
2022/04/05 03:00:33;;;;;;;9.50;6.70;;;6.60;93.00;;;;;;5053200;28;20025;-74
2022/04/05 03:02:59;;;;;;;8.60;6.40;;;6.70;92.90;;;;;;5053599;28;20027;-74
2022/04/05 03:05:25;;;;;;;8.02;6.22;;;6.70;93.10;;;;;;5052877;28;20110;-73
2022/04/05 03:07:50;;;;;;;7.25;6.28;;;6.70;93.10;;;;;;5053445;28;20347;-73
2022/04/05 03:10:16;;;;;;;9.68;6.35;;;6.70;92.60;;;;;;5052304;28;20092;-73
2022/04/05 03:12:42;;;;;;;7.43;6.15;;;6.70;92.80;;;;;;5053329;28;20465;-73
2022/04/05 03:15:09;;;;;;;8.38;6.88;;;6.70;92.60;;;;;;5051528;28;20025;-74
2022/04/05 03:17:40;;;;;;;6.95;6.10;;;6.80;92.10;;;;;;5053341;28;20449;-74
2022/04/05 03:20:06;;;;;;;7.55;6.32;;;6.70;92.20;;;;;;5053265;28;20033;-73
2022/04/05 03:22:32;;;;;;;6.93;6.07;;;6.80;92.00;;;;;;5053110;28;20035;-74
2022/04/05 03:24:58;;;;;;;6.95;5.60;;;6.80;91.90;;;;;;5053141;28;20448;-75
2022/04/05 03:27:23;;;;;;;7.85;6.15;;;6.80;91.70;;;;;;5052682;28;20021;-74
2022/04/05 03:29:49;;;;;;;7.45;6.35;;;6.80;91.80;;;;;;5052967;28;20120;-74
2022/04/05 03:32:15;;;;;;;7.65;6.22;;;6.80;91.40;;;;;;5052280;28;20025;-74
2022/04/05 03:34:40;;;;;;;8.32;6.32;;;6.90;91.00;;;;;;5052612;28;20492;-74
2022/04/05 03:37:06;;;;;;;6.93;6.03;;;6.90;91.10;;;;;;5052877;28;20025;-73
2022/04/05 03:39:32;;;;;;;7.88;6.05;;;6.90;91.00;;;;;;5052274;28;20499;-74
2022/04/05 03:41:58;;;;;;;6.82;5.55;;;7.00;90.70;;;;;;5052721;28;20029;-73
2022/04/05 03:44:25;;;;;;;7.60;5.55;;;7.00;90.60;;;;;;5052127;28;20021;-74
2022/04/05 03:46:51;;;;;;;6.72;5.57;;;7.00;90.30;;;;;;5052820;28;20029;-75
2022/04/05 03:49:18;;;;;;;7.32;5.60;;;7.00;90.30;;;;;;5052097;28;20029;-74
2022/04/05 03:51:43;;;;;;;6.90;5.90;;;7.00;90.20;;;;;;5052738;28;20028;-73
2022/04/05 03:54:09;;;;;;;7.78;5.82;;;7.00;89.10;;;;;;5052268;28;20029;-79
2022/04/05 03:56:35;;;;;;;6.30;5.55;;;7.10;89.20;;;;;;5052060;28;20390;-75
2022/04/05 03:59:00;;;;;;;6.75;5.80;;;7.10;88.80;;;;;;5052294;28;20129;-73
2022/04/05 04:01:26;;;;;;;10.63;5.20;;;7.10;88.90;;;;;;5051827;28;20029;-73
2022/04/05 04:03:52;;;;;;;7.47;5.57;;;7.10;88.40;;;;;;5051890;28;20087;-74
2022/04/05 04:06:17;;;;;;;7.38;5.72;;;7.20;88.10;;;;;;5051734;28;20029;-74
2022/04/05 04:08:43;;;;;;;8.50;5.10;;;7.20;87.00;;;;;;5052016;28;20029;-74
2022/04/05 04:11:08;;;;;;;8.32;5.35;;;7.20;86.30;;;;;;5051974;28;20029;-74
2022/04/05 04:13:34;;;;;;;9.18;5.60;;;7.30;86.40;;;;;;5051712;28;20398;-74
2022/04/05 04:16:00;;;;;;;6.20;5.30;;;7.30;85.60;;;;;;5052508;28;20025;-74
2022/04/05 04:18:27;;;;;;;6.78;4.97;;;7.30;85.60;;;;;;5051545;28;20040;-74
2022/04/05 04:20:52;;;;;;;10.13;5.07;;;7.40;85.60;;;;;;5052181;28;20500;-74
2022/04/05 04:23:19;;;;;;;8.30;5.55;;;7.40;85.40;;;;;;5051409;28;20107;-74
2022/04/05 04:25:44;;;;;;;5.75;4.97;;;7.40;84.80;;;;;;5050912;28;20021;-74
2022/04/05 04:28:11;;;;;;;5.93;5.13;;;7.40;84.70;;;;;;5051625;28;20389;-74
2022/04/05 04:30:38;;;;;;;7.45;5.07;;;7.40;84.70;;;;;;5051923;28;20033;-74
2022/04/05 04:33:05;;;;;;;7.97;5.10;;;7.40;84.40;;;;;;5051726;28;20028;-75
2022/04/05 04:35:31;;;;;;;6.85;4.95;;;7.50;84.50;;;;;;5050035;28;20029;-75
2022/04/05 04:37:57;;;;;;;5.97;5.10;;;7.50;84.30;;;;;;5051989;28;20033;-74
2022/04/05 04:40:23;;;;;;;5.60;4.80;;;7.50;84.10;;;;;;5051106;28;20394;-73
2022/04/05 04:42:49;;;;;;;6.43;4.85;;;7.50;84.20;;;;;;5051620;28;20028;-73
2022/04/05 04:45:15;;;;;;;8.52;5.28;;;7.60;84.10;;;;;;5050797;28;20029;-75
2022/04/05 04:47:41;;;;;;;5.90;4.55;;;7.60;84.40;;;;;;5051718;28;20028;-74
2022/04/05 04:50:08;;;;;;;6.97;4.72;;;7.60;84.60;;;;;;5051753;28;20028;-75
2022/04/05 04:52:34;;;;;;;4.82;4.25;;;7.60;84.10;;;;;;5051174;28;20068;-75
2022/04/05 04:55:00;;;;;;;5.63;4.63;;;7.60;84.10;;;;;;5051032;28;20036;-73
2022/04/05 04:57:26;;;;;;;6.95;4.68;;;7.60;84.20;;;;;;5051102;28;20025;-73
2022/04/05 04:59:52;;;;;;;7.60;4.43;;;7.70;84.00;;;;;;5051572;28;20108;-74
2022/04/05 05:02:18;;;;;;;7.13;4.70;;;7.70;84.10;;;;;;5050951;28;20017;-74
2022/04/05 05:04:44;;;;;;;6.78;4.22;;;7.70;83.80;;;;;;5051562;28;20025;-73
2022/04/05 05:07:10;;;;;;;5.28;4.68;;;7.70;83.50;;;;;;5051689;28;20025;-73
2022/04/05 05:09:36;;;;;;;6.60;4.55;;;7.70;83.60;;;;;;5050547;28;20056;-73
2022/04/05 05:12:02;;;;;;;5.50;4.50;;;7.80;83.40;;;;;;5051605;28;20434;-74
2022/04/05 05:14:28;;;;;;;6.60;4.53;;;7.80;83.20;;;;;;5051455;28;20036;-74
2022/04/05 05:16:54;;;;;;;8.63;5.05;;;7.80;82.90;;;;;;5055513;28;20029;-74
2022/04/05 05:19:21;;;;;;;5.10;4.15;;;7.80;82.90;;;;;;5054972;28;20035;-74
2022/04/05 05:21:46;;;;;;;6.90;4.97;;;7.80;82.60;;;;;;5055284;28;20033;-73
2022/04/05 05:24:12;;;;;;;6.35;4.45;;;7.80;82.40;;;;;;5055132;28;20059;-74
2022/04/05 05:26:37;;;;;;;4.45;4.05;;;7.80;82.30;;;;;;5054915;28;20036;-74
2022/04/05 05:29:03;;;;;;;6.68;4.22;;;7.80;82.30;;;;;;5055307;28;20460;-75
2022/04/05 05:31:29;;;;;;;6.15;4.32;;;7.80;82.10;;;;;;5054365;28;20029;-74
2022/04/05 05:33:55;;;;;;;6.60;3.97;;;7.90;82.00;;;;;;5055364;28;20363;-73
2022/04/05 05:36:20;;;;;;;7.97;5.13;;;7.80;81.90;;;;;;5054692;28;20029;-73
2022/04/05 05:38:46;;;;;;;10.30;5.00;;;7.90;82.20;;;;;;5055202;28;20373;-74
2022/04/05 05:41:12;;;;;;;4.53;4.03;;;7.90;82.20;;;;;;5055257;28;20037;-73
2022/04/05 05:43:38;;;;;;;9.38;5.03;;;7.90;81.80;;;;;;5054431;28;20051;-74
2022/04/05 05:46:06;;;;;;;5.78;4.43;;;7.90;81.80;;;;;;5055049;28;20480;-74
2022/04/05 05:48:33;;;;;;;7.25;4.28;;;8.00;82.20;;;;;;5054450;28;20064;-74
2022/04/05 05:50:59;;;;;;;5.88;4.50;;;8.00;81.50;;;;;;5054864;28;20037;-75
2022/04/05 05:53:24;;;;;;;5.45;4.40;;;8.00;81.60;;;;;;5054282;28;20527;-74
2022/04/05 05:55:50;;;;;;;7.15;4.28;;;8.00;82.00;;;;;;5054784;28;20041;-73
2022/04/05 05:58:16;;;;;;;5.78;4.13;;;8.00;81.60;;;;;;5054946;28;20031;-74
2022/04/05 06:00:42;;;;;;;6.22;4.60;;;8.10;81.50;;;;;;5054268;28;20489;-74
2022/04/05 06:03:10;;;;;;;6.53;4.35;;;8.10;81.30;;;;;;5054723;28;20031;-73
2022/04/05 06:05:36;;;;;;;8.65;4.45;;;8.10;81.30;;;;;;5054197;28;20029;-74
2022/04/05 06:08:04;;;;;;;5.95;4.88;;;8.20;81.60;;;;;;5054670;28;20036;-74
2022/04/05 06:10:30;;;;;;;5.53;4.82;;;8.10;81.90;;;;;;5053973;28;20029;-74
2022/04/05 06:12:57;;;;;;;8.38;4.72;;;8.10;82.70;;;;;;5054611;28;20025;-73
2022/04/05 06:15:25;;;;;;;7.65;4.40;;;8.20;84.00;;;;;;5053808;28;20029;-75
2022/04/05 06:17:52;;;;;;;7.82;4.57;;;8.10;85.20;;;;;;5054328;28;20104;-74
2022/04/05 06:20:21;;;;;;;7.03;4.80;;;8.10;85.60;;;;;;5054199;28;20025;-74
2022/04/05 06:22:49;;;;;;;5.35;4.85;;;8.00;86.40;;;;;;5054113;28;20078;-73
2022/04/05 06:25:35;;;;;;;6.35;4.35;;;8.10;87.30;;;;;;5053824;28;20033;-74
2022/04/05 06:28:04;;;;;;;6.88;4.57;;;8.10;87.40;;;;;;5054214;28;20071;-74
2022/04/05 06:30:35;;;;;;;5.72;5.07;;;8.00;87.20;;;;;;5053586;28;20058;-74
2022/04/05 06:33:10;;;;;;;6.13;5.13;;;8.00;88.60;;;;;;5054281;28;20029;-74
2022/04/05 06:35:38;;;;;;;9.70;4.78;;;8.00;88.60;;;;;;5053570;28;20036;-74
2022/04/05 06:38:04;;;;;;;5.65;4.72;;;8.00;88.90;;;;;;5054121;28;20028;-74
2022/04/05 06:40:30;;;;;;;5.88;4.80;;;7.90;87.80;;;;;;5053098;28;20414;-74
2022/04/05 06:42:56;;;;;;;5.93;4.80;;;7.90;88.10;;;;;;5053722;28;20032;-75
2022/04/05 06:45:22;;;;;;;7.45;5.15;;;8.00;88.30;;;;;;5053418;28;20029;-77
2022/04/05 06:47:48;;;;;;;5.82;5.00;;;7.90;89.00;;;;;;5053602;28;20501;-73
2022/04/05 06:50:17;;;;;;;5.47;4.60;;;7.90;89.40;;;;;;5053829;28;20489;-74
2022/04/05 06:52:43;;;;;;;6.00;4.75;;;7.90;89.80;;;;;;5053270;28;20048;-74
2022/04/05 06:55:10;;;;;;;6.45;4.50;;;7.90;90.00;;;;;;5053624;28;20049;-74
2022/04/05 06:57:36;;;;;;;5.63;4.75;;;8.00;90.80;;;;;;5053113;28;20359;-74
2022/04/05 07:00:06;;;;;;;9.70;4.97;;;7.90;91.00;;;;;;5053566;28;20033;-74
2022/04/05 07:02:32;;;;;;;5.10;4.45;;;7.90;91.20;;;;;;5053002;28;20032;-74
2022/04/05 07:04:57;;;;;;;4.93;4.07;;;7.90;91.50;;;;;;5053315;28;20382;-73
2022/04/05 07:07:23;;;;;;;5.80;4.78;;;7.90;91.70;;;;;;5053028;28;20347;-78
2022/04/05 07:09:49;;;;;;;5.38;4.50;;;7.90;91.80;;;;;;5053519;28;20355;-73
2022/04/05 07:12:14;;;;;;;5.45;4.80;;;7.90;91.90;;;;;;5053600;28;20178;-74
2022/04/05 07:14:40;;;;;;;8.68;5.05;;;7.90;92.40;;;;;;5052820;28;20025;-74
2022/04/05 07:17:05;;;;;;;4.60;4.03;;;7.90;92.20;;;;;;5052991;28;20032;-74
2022/04/05 07:19:33;;;;;;;7.15;4.50;;;7.90;91.80;;;;;;5052768;28;20051;-74
2022/04/05 07:21:59;;;;;;;5.80;4.68;;;8.00;91.90;;;;;;5053196;28;20017;-73
2022/04/05 07:24:26;;;;;;;4.85;4.20;;;8.00;92.40;;;;;;5052675;28;20087;-75
2022/04/05 07:26:52;;;;;;;5.13;4.45;;;8.00;92.20;;;;;;5053031;28;20037;-74
2022/04/05 07:32:02;;;;;;;5.15;3.92;;;8.00;93.40;;;;;;5053323;28;20536;-74
2022/04/05 07:34:28;;;;;;;4.68;4.15;;;8.00;94.30;;;;;;5052366;28;20425;-74
2022/04/05 07:36:53;;;;;;;5.68;4.82;;;8.00;94.60;;;;;;5052591;28;20036;-73
2022/04/05 07:39:21;;;;;;;4.68;4.00;;;7.90;95.10;;;;;;5052808;28;20506;-74
2022/04/05 07:41:47;;;;;;;4.82;4.28;;;7.90;94.30;;;;;;5052266;28;20428;-73
2022/04/05 07:44:13;;;;;;;6.32;4.20;;;7.90;95.00;;;;;;5052853;28;20527;-74
2022/04/05 07:46:39;;;;;;;5.40;4.15;;;7.90;95.60;;;;;;5052269;28;20029;-74
2022/04/05 07:49:05;;;;;;;5.63;4.47;;;7.90;95.90;;;;;;5052582;28;20117;-74
2022/04/05 07:51:31;;;;;;;4.75;4.30;;;7.90;96.10;;;;;;5052181;28;20029;-74
2022/04/05 07:53:56;;;;;;;5.63;4.63;;;7.80;95.60;;;;;;5052738;28;20413;-73
2022/04/05 07:56:22;;;;;;;5.90;4.63;;;7.80;96.20;;;;;;5052964;28;20140;-74
2022/04/05 07:58:48;;;;;;;6.00;4.95;;;7.80;97.30;;;;;;5052003;28;20166;-73
2022/04/05 08:01:13;;;;;;;5.65;5.15;;;7.70;98.00;;;;;;5052607;28;20033;-74
2022/04/05 08:03:39;;;;;;;6.72;4.93;;;7.60;97.80;;;;;;5052273;28;20074;-74
2022/04/05 08:06:05;;;;;;;6.03;5.07;;;7.60;98.10;;;;;;5052490;28;20024;-73
2022/04/05 08:08:31;;;;;;;5.93;5.07;;;7.60;98.80;;;;;;5051723;28;20100;-74
2022/04/05 08:10:57;;;;;;;5.53;4.70;;;7.60;99.00;;;;;;5052007;28;20029;-74
2022/04/05 08:13:23;;;;;;;5.85;5.25;;;7.60;99.30;;;;;;5052160;28;20163;-74
2022/04/05 08:15:49;;;;;;;5.53;4.93;;;7.60;99.70;;;;;;5051913;28;20468;-74
2022/04/05 08:18:15;;;;;;;5.65;4.78;;;7.70;99.40;;;;;;5051963;28;20074;-74
2022/04/05 08:20:41;;;;;;;7.00;5.13;;;7.70;99.30;;;;;;5051385;28;20028;-73
2022/04/05 08:23:09;;;;;;;5.53;4.80;;;7.70;99.40;;;;;;5052168;28;20477;-73
2022/04/05 08:25:35;;;;;;;6.97;4.45;;;7.80;98.90;;;;;;5051443;28;20386;-73
2022/04/05 08:28:01;;;;;;;5.10;4.60;;;7.80;98.50;;;;;;5052005;28;20058;-74
2022/04/05 08:30:27;;;;;;;4.82;4.10;;;7.80;97.90;;;;;;5051885;28;20039;-74
2022/04/05 08:32:53;;;;;;;5.07;4.50;;;7.90;98.00;;;;;;5050943;28;20033;-74
2022/04/05 08:35:21;;;;;;;5.32;3.92;;;7.90;97.30;;;;;;5051884;28;20124;-74
2022/04/05 08:37:48;;;;;;;5.70;4.38;;;8.00;97.10;;;;;;5049975;28;20048;-74
2022/04/05 08:40:16;;;;;;;5.78;4.28;;;8.00;96.80;;;;;;5051884;28;20106;-74
2022/04/05 08:42:45;;;;;;;5.65;4.18;;;8.10;95.90;;;;;;5051155;28;20036;-74
2022/04/05 08:45:13;;;;;;;5.18;3.83;;;8.10;95.90;;;;;;5051456;28;20025;-74
2022/04/05 08:47:43;;;;;;;3.60;3.30;;;8.10;95.30;;;;;;5050737;28;20025;-74
2022/04/05 08:50:09;;;;;;;3.92;3.60;;;8.20;94.10;;;;;;5050498;28;20120;-74
2022/04/05 08:52:35;;;;;;;3.30;3.00;;;8.30;94.10;;;;;;5050915;28;20086;-74
2022/04/05 08:55:01;;;;;;;4.63;4.03;;;8.30;94.20;;;;;;5051481;28;20025;-74
2022/04/05 08:57:26;;;;;;;4.20;3.80;;;8.50;94.10;;;;;;5051721;28;20576;-74
2022/04/05 08:59:52;;;;;;;4.30;3.30;;;8.50;94.30;;;;;;5050660;28;20036;-74
2022/04/05 09:02:27;;;;;;;5.85;3.42;;;8.60;92.50;;;;;;5051621;28;20025;-74
2022/04/05 09:04:53;;;;;;;3.80;3.45;;;8.60;92.80;;;;;;5051057;28;20082;-74
2022/04/05 09:07:21;;;;;;;4.05;3.00;;;8.60;92.00;;;;;;5051482;28;20021;-75
2022/04/05 09:10:06;;;;;;;4.43;3.22;;;8.60;92.20;;;;;;5050994;28;20048;-75
2022/04/05 09:12:48;;;;;;;3.22;2.63;;;8.60;91.70;;;;;;5051567;28;20043;-74
2022/04/05 09:15:17;;;;;;;2.78;2.58;;;8.70;91.50;;;;;;5051693;28;20033;-75
2022/04/05 09:17:44;;;;;;;3.60;2.80;;;8.70;91.50;;;;;;5050266;28;20504;-75
2022/04/05 09:20:11;;;;;;;5.28;3.05;;;8.80;91.50;;;;;;5051731;28;20033;-74
2022/04/05 09:22:38;;;;;;;5.32;2.70;;;8.90;91.10;;;;;;5050922;28;20032;-74
2022/04/05 09:28:00;;;;;;;5.20;2.55;;;9.20;90.50;;;;;;5051490;28;20031;-74
2022/04/05 09:30:29;;;;;;;7.10;3.08;;;9.30;90.10;;;;;;5051383;28;20070;-74
2022/04/05 09:33:01;;;;;;;3.70;3.00;;;9.50;90.50;;;;;;5050736;28;20082;-73
2022/04/05 09:35:41;;;;;;;2.75;2.50;;;9.60;89.10;;;;;;5051311;28;20104;-74
2022/04/05 09:38:15;;;;;;;3.17;2.40;;;9.80;86.70;;;;;;5051395;28;20021;-73
2022/04/05 09:40:42;;;;;;;3.75;2.10;;;9.80;84.80;;;;;;5050772;28;20078;-73
2022/04/05 09:43:10;;;;;;;2.50;2.05;;;9.90;83.80;;;;;;5051252;28;20059;-73
2022/04/05 09:45:50;;;;;;;3.17;2.35;;;9.90;83.10;;;;;;5050476;28;20139;-74
2022/04/05 09:48:18;;;;;;;2.78;2.08;;;10.00;82.90;;;;;;5051153;28;20021;-72
2022/04/05 09:50:58;;;;;;;5.03;2.78;;;10.20;82.70;;;;;;5050408;28;20111;-73
2022/04/05 09:53:24;;;;;;;2.90;2.30;;;10.50;84.50;;;;;;5051124;28;20382;-74
2022/04/05 09:56:11;;;;;;;3.20;1.95;;;10.70;79.70;;;;;;5050453;28;20060;-73
2022/04/05 09:58:46;;;;;;;5.53;2.25;;;10.80;77.90;;;;;;5050625;28;20234;-75
2022/04/05 10:01:12;;;;;;;3.60;1.77;;;10.90;77.00;;;;;;5053140;28;20456;-74
2022/04/05 10:03:40;;;;;;;7.55;2.10;;;10.80;77.10;;;;;;5054005;28;20029;-74
2022/04/05 10:06:06;;;;;;;3.53;2.15;;;10.80;77.00;;;;;;5054653;28;20029;-73
2022/04/05 10:08:34;;;;;;;2.25;1.70;;;10.80;77.60;;;;;;5054505;28;20454;-74
2022/04/05 10:11:00;;;;;;;5.53;1.90;;;10.90;77.30;;;;;;5053554;28;20393;-72
2022/04/05 10:13:27;;;;;;;3.67;1.70;;;10.90;77.60;;;;;;5054586;28;20378;-74
2022/04/05 10:15:54;;;;;;;2.80;1.90;;;10.90;78.00;;;;;;5053754;28;20025;-74
2022/04/05 10:18:20;;;;;;;3.47;1.90;;;10.90;78.10;;;;;;5054319;28;20116;-74
2022/04/05 10:20:49;;;;;;;3.17;1.65;;;10.90;77.90;;;;;;5053936;28;20029;-74
2022/04/05 10:23:21;;;;;;;3.63;2.20;;;10.90;77.60;;;;;;5054344;28;20024;-73
2022/04/05 10:25:53;;;;;;;3.33;2.00;;;11.00;77.80;;;;;;5052361;28;20096;-73
2022/04/05 10:28:24;;;;;;;3.08;1.80;;;11.10;77.80;;;;;;5054264;28;20026;-72
2022/04/05 10:31:23;;;;;;;2.80;1.73;;;11.10;75.90;;;;;;5053607;28;20033;-73
2022/04/05 10:34:06;;;;;;;3.25;1.98;;;11.00;76.30;;;;;;5053553;28;20079;-75
2022/04/05 10:36:32;;;;;;;4.32;2.03;;;11.00;77.60;;;;;;5054250;28;20033;-73
2022/04/05 10:39:16;;;;;;;3.63;1.73;;;11.00;77.00;;;;;;5053332;28;20033;-74
2022/04/05 10:41:44;;;;;;;1.92;1.73;;;10.90;77.10;;;;;;5053362;28;20033;-74
2022/04/05 10:44:22;;;;;;;6.03;2.00;;;10.80;76.80;;;;;;5054033;28;20132;-73
2022/04/05 10:47:07;;;;;;;3.80;1.73;;;10.80;77.70;;;;;;5052982;28;20422;-74
2022/04/05 10:49:47;;;;;;;3.03;1.80;;;10.70;79.00;;;;;;5053858;28;20478;-73
2022/04/05 10:52:23;;;;;;;2.50;2.20;;;10.70;77.70;;;;;;5053598;28;20033;-74
2022/04/05 10:55:08;;;;;;;3.28;2.00;;;10.60;78.00;;;;;;5052140;28;20029;-74
2022/04/05 10:57:40;;;;;;;2.42;1.60;;;10.70;78.50;;;;;;5053564;28;20029;-74
2022/04/05 11:00:10;;;;;;;2.20;1.55;;;10.80;78.60;;;;;;5053521;28;20029;-73
2022/04/05 11:02:37;;;;;;;2.70;1.98;;;10.80;77.70;;;;;;5053685;28;20033;-74
2022/04/05 11:05:14;;;;;;;5.82;1.80;;;10.80;77.20;;;;;;5052935;28;20381;-73
2022/04/05 11:07:51;;;;;;;3.30;2.08;;;10.80;77.70;;;;;;5053602;28;20054;-74
2022/04/05 11:10:25;;;;;;;2.17;1.90;;;10.70;77.40;;;;;;5052898;28;20120;-74
2022/04/05 11:13:00;;;;;;;2.35;1.80;;;10.70;77.90;;;;;;5051786;28;20104;-74
2022/04/05 11:15:38;;;;;;;2.17;1.70;;;10.60;78.40;;;;;;5053279;28;20108;-73
2022/04/05 11:18:05;;;;;;;3.20;1.73;;;10.60;79.60;;;;;;5052603;28;20029;-73
2022/04/05 11:20:31;;;;;;;2.50;2.13;;;10.60;81.10;;;;;;5052744;28;20116;-74
2022/04/05 11:23:00;;;;;;;6.35;2.15;;;10.60;81.80;;;;;;5052160;28;20140;-73
2022/04/05 11:25:28;;;;;;;4.65;2.05;;;10.60;81.40;;;;;;5053018;28;20350;-72
2022/04/05 11:27:55;;;;;;;3.85;2.10;;;10.60;81.10;;;;;;5052481;28;20094;-73
2022/04/05 11:30:26;;;;;;;2.25;2.00;;;10.50;83.30;;;;;;5053005;28;20123;-73
2022/04/05 11:33:16;;;;;;;2.38;2.10;;;10.40;84.50;;;;;;5052228;28;20029;-74
2022/04/05 11:35:43;;;;;;;2.95;1.88;;;10.30;86.10;;;;;;5052989;28;20041;-77
2022/04/05 11:38:33;;;;;;;3.00;2.25;;;10.20;87.80;;;;;;5052839;28;20021;-74
2022/04/05 11:41:23;;;;;;;2.65;2.22;;;10.10;89.70;;;;;;5052204;28;20082;-73
2022/04/05 11:43:55;;;;;;;4.20;2.30;;;10.10;91.20;;;;;;5049076;28;20426;-73
2022/04/05 11:46:28;;;;;;;3.55;2.45;;;10.00;92.30;;;;;;5052439;28;20108;-73
2022/04/05 11:48:59;;;;;;;2.53;2.17;;;10.10;92.60;;;;;;5051633;28;20154;-74
2022/04/05 11:51:28;;;;;;;2.97;2.67;;;10.00;92.40;;;;;;5052510;28;20029;-73
2022/04/05 11:54:19;;;;;;;3.08;2.45;;;10.00;93.60;;;;;;5051968;28;20033;-72
2022/04/05 11:56:45;;;;;;;3.97;2.92;;;9.90;93.40;;;;;;5052101;28;20098;-73
2022/04/05 11:59:16;;;;;;;3.70;2.63;;;10.00;94.60;;;;;;5052412;28;20033;-73
2022/04/05 12:01:45;;;;;;;3.58;2.90;;;9.90;94.60;;;;;;5052483;28;20029;-74
2022/04/05 12:04:20;;;;;;;2.85;2.40;;;9.90;93.80;;;;;;5052343;28;20103;-74
2022/04/05 12:06:47;;;;;;;4.07;2.70;;;9.90;95.20;;;;;;5051893;28;20032;-73
2022/04/05 12:09:17;;;;;;;3.63;2.95;;;10.00;94.70;;;;;;5052274;28;20035;-72
2022/04/05 12:11:45;;;;;;;3.25;2.50;;;10.00;95.60;;;;;;5052150;28;20033;-73
2022/04/05 12:14:15;;;;;;;2.88;2.35;;;10.00;94.00;;;;;;5052172;28;20037;-73
2022/04/05 12:16:47;;;;;;;4.18;3.60;;;10.10;94.70;;;;;;5052276;28;20025;-73
2022/04/05 12:19:26;;;;;;;3.60;2.17;;;10.10;94.50;;;;;;5051970;28;20036;-74
2022/04/05 12:21:56;;;;;;;2.70;2.10;;;10.10;93.30;;;;;;5051730;28;20124;-73
2022/04/05 12:24:22;;;;;;;2.63;2.38;;;10.10;94.30;;;;;;5051604;28;20477;-72
2022/04/05 12:26:48;;;;;;;3.00;2.60;;;10.20;94.50;;;;;;5051394;28;20028;-73
2022/04/05 12:29:14;;;;;;;2.58;2.10;;;10.20;94.10;;;;;;5051863;28;20025;-73
2022/04/05 12:31:40;;;;;;;2.60;2.40;;;10.20;94.20;;;;;;5052008;28;20116;-73
2022/04/05 12:34:13;;;;;;;4.38;2.60;;;10.20;94.90;;;;;;5051336;28;20079;-73
2022/04/05 12:36:44;;;;;;;2.58;1.88;;;10.20;95.50;;;;;;5051825;28;20033;-73
2022/04/05 12:39:21;;;;;;;2.60;2.40;;;10.20;94.40;;;;;;5051352;28;20025;-73
2022/04/05 12:41:49;;;;;;;3.00;2.20;;;10.20;94.60;;;;;;5051544;28;20037;-79
2022/04/05 12:44:20;;;;;;;5.20;1.95;;;10.20;94.80;;;;;;5051884;28;20521;-72
2022/04/05 12:47:00;;;;;;;2.60;2.10;;;10.20;94.10;;;;;;5051773;28;20025;-73
2022/04/05 12:49:34;;;;;;;2.22;2.03;;;10.20;94.00;;;;;;5051946;28;20028;-73
2022/04/05 12:52:25;;;;;;;2.05;1.80;;;10.30;95.10;;;;;;5051121;28;20036;-74
2022/04/05 12:54:55;;;;;;;2.70;1.90;;;10.20;93.70;;;;;;5048687;28;20037;-75
2022/04/05 12:57:30;;;;;;;3.25;2.08;;;10.30;94.30;;;;;;5052019;28;20428;-74
2022/04/05 13:00:08;;;;;;;5.72;2.72;;;10.40;94.40;;;;;;5051142;28;20025;-73
2022/04/05 13:02:42;;;;;;;3.17;2.88;;;10.50;95.00;;;;;;5051450;28;20381;-74
2022/04/05 13:08:00;;;;;;;2.58;2.10;;;10.50;95.60;;;;;;5051282;28;20044;-74